Anderson Regional Airport
KAND : rendu visible

Aérodrome :











RETROUVEZ-NOUS SUR...

 
LOGIN :

S'inscrire | Disclaimer

   EN    FR    IT 

 









Légende :    VFR   VFR Marginal   IFR   IFR Intensif   IFR Très Intensif
Visi : 
Plafond : 
>= 8 km
>= 3000ft
5 à 8 km
1000 à 3000 ft
1500m à 5 km
500 à 1000 ft
800 à 1500m
200 à 500 ft
< 800m
< 200 ft
Symboles :   Orages  Brouillard  Fortes neiges  Fortes précipitations  Vent > 20 kt






- Altitude de l'aérodrome : 782 ft


KAND - Anderson Regional

DERNIER METAR :
  • 171756Z AUTO 06011KT 10SM CLR 09/M09 A3059 RMK AO2 SLP360 T00941089 10106 20039 58008

METARs EXPIRÉS :
  • 171656Z AUTO 04010KT 10SM CLR 10/M08 A3063 RMK AO2 SLP372 T01001078
  • 171556Z AUTO 06013G18KT 10SM CLR 09/M08 A3062 RMK AO2 SLP369 T00941078

TAF KAND
Valide du 17 à 18h jusqu'au 18 à 18h UTC


171739Z 1718/1818 05010KT P6SM SCT250
FM180000 08007KT P6SM BKN250
FM181100 07006KT P6SM SCT030 BKN060
FM181300 07005KT P6SM OVC030
PROB30 1815/1817 4SM -RA BR OVC015
FM181700 10003KT 6SM -RA BR OVC015



MET'MAP, la Météo Aéronautique d'un coup d'oeil ! - Copyright ORBIFLY Décembre 2007 - Disclaimer

ORBIFLY MET'MAP TEAM :

Programmation & Développement : Alexandra Zaïnal
Sur une idée originale de : Baudouin d'Aumeries
Assistance à la programmation : Marc-Olivier Méhu
Soutien technique & logistique : Manuel Goepfert

Contact : metmap@orbifly.com




SOURCES & CREDITS :

   NOAA       Earth
Advisory